Time;durP1;ratioP1;P1;durP2;ratioP2;P2;SDS_P1;SDS_P2;PMS_P1;PMS_P2;Temp;Humidity;BMP_temperature;BMP_pressure;BME280_temperature;BME280_humidity;BME280_pressure;Samples;Min_cycle;Max_cycle;Signal;HPM_P1;HPM_P2
2023/03/17 00:01:08;;;;;;;;;;;9.80;99.90;;;;;;4918051;29;19927;-76
2023/03/17 00:03:36;;;;;;;;;;;9.80;99.90;;;;;;4916783;29;19927;-76
2023/03/17 00:06:05;;;;;;;;;;;9.80;99.90;;;;;;4913462;29;19927;-76
2023/03/17 00:08:32;;;;;;;;;;;9.90;99.90;;;;;;4913000;29;19946;-76
2023/03/17 00:10:59;;;;;;;;;;;9.90;99.90;;;;;;4908472;29;20213;-76
2023/03/17 00:13:26;;;;;;;;;;;10.50;99.90;;;;;;4917513;29;19923;-76
2023/03/17 00:15:54;;;;;;;;;;;9.90;99.90;;;;;;4916694;29;20452;-76
2023/03/17 00:18:22;;;;;;;;;;;9.90;99.90;;;;;;4913393;29;20390;-76
2023/03/17 00:20:49;;;;;;;;;;;9.90;99.90;;;;;;4916247;29;19953;-76
2023/03/17 00:23:18;;;;;;;;;;;9.90;99.90;;;;;;4929941;29;19931;-76
2023/03/17 00:25:45;;;;;;;;;;;9.90;99.90;;;;;;4915336;29;20397;-76
2023/03/17 00:28:17;;;;;;;;;;;9.80;99.90;;;;;;4917817;29;19931;-76
2023/03/17 00:30:43;;;;;;;;;;;9.80;99.90;;;;;;4921584;29;19965;-76
2023/03/17 00:33:12;;;;;;;;;;;9.80;99.90;;;;;;4917600;29;19969;-76
2023/03/17 00:35:40;;;;;;;;;;;9.70;99.90;;;;;;4931203;29;20313;-76
2023/03/17 00:38:07;;;;;;;;;;;9.70;99.90;;;;;;4917745;29;19965;-76
2023/03/17 00:40:35;;;;;;;;;;;9.70;99.90;;;;;;4927498;29;19941;-75
2023/03/17 00:43:02;;;;;;;;;;;9.70;99.90;;;;;;4953692;28;19961;-75
2023/03/17 00:45:29;;;;;;;;;;;9.70;99.90;;;;;;4937671;29;19986;-76
2023/03/17 00:47:57;;;;;;;;;;;9.70;99.90;;;;;;4935680;29;20304;-76
2023/03/17 00:50:26;;;;;;;;;;;9.70;99.90;;;;;;4929021;29;19938;-76
2023/03/17 00:52:54;;;;;;;;;;;9.70;99.90;;;;;;4915138;29;19957;-78
2023/03/17 00:55:22;;;;;;;;;;;9.70;99.90;;;;;;4914721;29;19927;-78
2023/03/17 00:57:50;;;;;;;;;;;9.80;99.90;;;;;;4914728;29;19931;-78
2023/03/17 01:00:19;;;;;;;;;;;8.90;99.90;;;;;;4913788;29;19923;-78
2023/03/17 01:02:46;;;;;;;;;;;9.70;99.90;;;;;;4921728;29;19938;-78
2023/03/17 01:05:13;;;;;;;;;;;9.70;99.90;;;;;;4937271;23;19930;-78
2023/03/17 01:07:41;;;;;;;;;;;9.70;99.90;;;;;;4946430;28;20551;-79
2023/03/17 01:10:12;;;;;;;;;;;9.70;99.90;;;;;;4945573;28;19929;-77
2023/03/17 01:12:40;;;;;;;;;;;9.60;99.90;;;;;;4957383;28;19933;-78
2023/03/17 01:15:09;;;;;;;;;;;9.70;99.90;;;;;;4963842;28;19926;-78
2023/03/17 01:17:36;;;;;;;;;;;9.70;99.90;;;;;;4953771;29;20427;-77
2023/03/17 01:20:04;;;;;;;;;;;9.00;99.90;;;;;;4935030;29;19922;-78
2023/03/17 01:22:31;;;;;;;;;;;9.70;99.90;;;;;;4942525;28;20012;-75
2023/03/17 01:24:57;;;;;;;;;;;9.70;99.90;;;;;;4954066;28;19930;-76
2023/03/17 01:27:24;;;;;;;;;;;9.70;99.90;;;;;;4952477;29;20426;-76
2023/03/17 01:29:52;;;;;;;;;;;9.70;99.90;;;;;;4951126;28;20433;-76
2023/03/17 01:32:21;;;;;;;;;;;9.70;99.90;;;;;;4934719;29;19981;-76
2023/03/17 01:34:47;;;;;;;;;;;9.70;99.90;;;;;;4952615;28;20285;-76
2023/03/17 01:37:14;;;;;;;;;;;9.70;99.90;;;;;;4954802;28;19949;-77
2023/03/17 01:39:41;;;;;;;;;;;9.60;99.90;;;;;;4934851;29;19926;-76
2023/03/17 01:42:09;;;;;;;;;;;9.50;99.90;;;;;;4935306;28;19929;-76
2023/03/17 01:44:36;;;;;;;;;;;9.50;99.90;;;;;;4953861;28;19922;-76
2023/03/17 01:47:02;;;;;;;;;;;9.50;99.90;;;;;;4952352;29;19926;-76
2023/03/17 01:49:33;;;;;;;;;;;9.50;99.90;;;;;;4955476;29;19937;-77
2023/03/17 01:52:03;;;;;;;;;;;9.30;99.90;;;;;;4940607;28;19922;-77
2023/03/17 01:54:34;;;;;;;;;;;10.00;99.90;;;;;;4941147;29;19922;-77
2023/03/17 01:57:03;;;;;;;;;;;9.40;99.90;;;;;;4936451;29;19937;-78
2023/03/17 01:59:33;;;;;;;;;;;9.40;99.90;;;;;;4933492;29;19923;-79
2023/03/17 02:02:02;;;;;;;;;;;9.50;99.90;;;;;;4940960;28;20359;-77
2023/03/17 02:04:30;;;;;;;;;;;;;;;;;;4965875;23;19979;-78
2023/03/17 02:06:58;;;;;;;;;;;9.50;99.90;;;;;;4922926;29;20186;-78
2023/03/17 02:09:25;;;;;;;;;;;9.50;99.90;;;;;;4942532;28;19923;-78
2023/03/17 02:11:52;;;;;;;;;;;9.50;99.90;;;;;;4948587;28;19927;-78
2023/03/17 02:14:19;;;;;;;;;;;9.60;99.90;;;;;;4941354;29;19930;-79
2023/03/17 02:16:46;;;;;;;;;;;9.60;99.90;;;;;;4915241;29;20001;-78
2023/03/17 02:19:16;;;;;;;;;;;9.50;99.90;;;;;;4924103;29;19926;-78
2023/03/17 02:21:45;;;;;;;;;;;9.60;99.90;;;;;;4923089;29;20327;-78
2023/03/17 02:24:16;;;;;;;;;;;9.60;99.90;;;;;;4926267;29;20353;-78
2023/03/17 02:26:47;;;;;;;;;;;9.60;99.90;;;;;;4935531;29;19926;-79
2023/03/17 02:29:14;;;;;;;;;;;9.50;99.90;;;;;;4945572;29;20010;-79
2023/03/17 02:31:41;;;;;;;;;;;9.50;99.90;;;;;;4927787;29;19957;-79
2023/03/17 02:34:08;;;;;;;;;;;9.50;99.90;;;;;;4919207;29;20029;-79
2023/03/17 02:36:35;;;;;;;;;;;9.40;99.90;;;;;;4929669;29;19934;-79
2023/03/17 02:39:03;;;;;;;;;;;9.10;99.90;;;;;;4942021;29;19950;-80
2023/03/17 02:41:30;;;;;;;;;;;9.40;99.90;;;;;;4941186;29;19927;-79
2023/03/17 02:43:57;;;;;;;;;;;9.30;99.90;;;;;;4941957;29;19933;-79
2023/03/17 02:46:23;;;;;;;;;;;9.20;99.90;;;;;;4927288;29;19954;-80
2023/03/17 02:48:51;;;;;;;;;;;9.30;99.90;;;;;;4933212;29;19922;-80
2023/03/17 02:51:17;;;;;;;;;;;9.20;99.90;;;;;;4934996;29;19926;-80
2023/03/17 02:53:44;;;;;;;;;;;9.20;99.90;;;;;;4937968;29;20295;-80
2023/03/17 02:56:12;;;;;;;;;;;9.10;99.90;;;;;;4945508;29;19930;-79
2023/03/17 02:58:39;;;;;;;;;;;9.10;99.90;;;;;;4955711;29;19934;-79
2023/03/17 03:01:06;;;;;;;;;;;9.10;99.90;;;;;;4934815;29;19923;-81
2023/03/17 03:03:32;;;;;;;;;;;9.00;99.90;;;;;;4945655;29;20288;-79
2023/03/17 03:05:59;;;;;;;;;;;9.00;99.90;;;;;;4947937;29;20002;-80
2023/03/17 03:08:26;;;;;;;;;;;9.00;99.90;;;;;;4944915;29;19922;-82
2023/03/17 03:10:54;;;;;;;;;;;9.00;99.90;;;;;;4960977;29;19932;-79
2023/03/17 03:13:22;;;;;;;;;;;9.00;99.90;;;;;;4911320;29;20439;-81
2023/03/17 03:15:49;;;;;;;;;;;9.00;99.90;;;;;;4938351;29;19961;-80
2023/03/17 03:18:16;;;;;;;;;;;9.00;99.90;;;;;;4923942;29;19934;-80
2023/03/17 03:20:42;;;;;;;;;;;9.00;99.90;;;;;;4930069;29;20017;-81
2023/03/17 03:23:09;;;;;;;;;;;9.20;99.90;;;;;;4947126;29;19926;-80
2023/03/17 03:25:37;;;;;;;;;;;9.00;99.90;;;;;;4938840;29;20029;-82
2023/03/17 03:28:05;;;;;;;;;;;9.00;99.90;;;;;;4932749;29;19949;-80
2023/03/17 03:30:34;;;;;;;;;;;9.00;99.90;;;;;;4918740;29;19923;-80
2023/03/17 03:33:00;;;;;;;;;;;9.00;99.90;;;;;;4929826;29;19965;-82
2023/03/17 03:35:28;;;;;;;;;;;9.40;99.90;;;;;;4946522;29;19973;-80
2023/03/17 03:37:55;;;;;;;;;;;9.00;99.90;;;;;;4943038;29;19926;-81
2023/03/17 03:40:22;;;;;;;;;;;9.00;99.90;;;;;;4932768;29;20399;-80
2023/03/17 03:42:49;;;;;;;;;;;9.00;99.90;;;;;;4935385;29;19926;-80
2023/03/17 03:45:16;;;;;;;;;;;8.90;99.90;;;;;;4953113;29;19933;-80
2023/03/17 03:47:44;;;;;;;;;;;8.90;99.90;;;;;;4930330;29;19933;-80
2023/03/17 03:50:12;;;;;;;;;;;8.90;99.90;;;;;;4935267;29;20253;-81
2023/03/17 03:52:38;;;;;;;;;;;8.90;99.90;;;;;;4940472;28;20344;-80
2023/03/17 03:55:05;;;;;;;;;;;8.90;99.90;;;;;;4941550;29;20123;-81
2023/03/17 03:57:32;;;;;;;;;;;8.90;99.90;;;;;;4924917;29;19973;-80
2023/03/17 03:59:59;;;;;;;;;;;8.80;99.90;;;;;;4953924;29;20489;-81
2023/03/17 04:02:26;;;;;;;;;;;8.80;99.90;;;;;;4941294;29;19926;-80
2023/03/17 04:04:55;;;;;;;;;;;8.80;99.90;;;;;;4934395;28;19989;-80
2023/03/17 04:07:21;;;;;;;;;;;8.80;99.90;;;;;;4926858;29;19938;-79
2023/03/17 04:09:49;;;;;;;;;;;9.90;99.90;;;;;;4930263;29;19926;-80
2023/03/17 04:12:15;;;;;;;;;;;8.60;99.90;;;;;;4921686;29;20037;-81
2023/03/17 04:14:43;;;;;;;;;;;8.70;99.90;;;;;;4925469;29;19990;-81
2023/03/17 04:17:10;;;;;;;;;;;8.70;99.90;;;;;;4921480;29;19934;-78
2023/03/17 04:19:37;;;;;;;;;;;9.10;99.90;;;;;;4946741;29;20273;-79
2023/03/17 04:22:06;;;;;;;;;;;8.70;99.90;;;;;;4935907;29;19926;-79
2023/03/17 04:27:15;;;;;;;;;;;8.70;99.90;;;;;;5236827;23;19926;-79
2023/03/17 04:29:42;;;;;;;;;;;8.70;99.90;;;;;;4979816;28;19980;-80
2023/03/17 04:32:12;;;;;;;;;;;8.60;99.90;;;;;;4970709;28;19922;-79
2023/03/17 04:34:38;;;;;;;;;;;8.70;99.90;;;;;;4976782;28;20240;-79
2023/03/17 04:37:07;;;;;;;;;;;8.70;99.90;;;;;;4976280;28;19922;-80
2023/03/17 04:39:37;;;;;;;;;;;8.70;99.90;;;;;;4975154;28;19937;-81
2023/03/17 04:42:04;;;;;;;;;;;8.70;99.90;;;;;;4980030;28;19932;-81
2023/03/17 04:44:30;;;;;;;;;;;8.80;99.90;;;;;;4979514;28;19926;-81
2023/03/17 04:46:57;;;;;;;;;;;8.80;99.90;;;;;;4986437;28;20010;-80
2023/03/17 04:49:24;;;;;;;;;;;8.80;99.90;;;;;;4991400;28;19926;-82
2023/03/17 04:51:51;;;;;;;;;;;8.90;99.90;;;;;;4976064;28;20363;-80
2023/03/17 04:54:20;;;;;;;;;;;8.90;99.90;;;;;;4973931;28;19926;-80
2023/03/17 04:56:46;;;;;;;;;;;8.90;99.90;;;;;;4974379;28;19926;-80
2023/03/17 04:59:13;;;;;;;;;;;8.90;99.90;;;;;;4973264;28;19929;-80
2023/03/17 05:01:40;;;;;;;;;;;8.90;99.90;;;;;;4976037;28;20192;-81
2023/03/17 05:04:06;;;;;;;;;;;8.90;99.90;;;;;;4975924;28;19932;-80
2023/03/17 05:06:34;;;;;;;;;;;8.90;99.90;;;;;;4979924;28;20402;-80
2023/03/17 05:09:01;;;;;;;;;;;8.90;99.90;;;;;;4979500;28;19926;-80
2023/03/17 05:11:29;;;;;;;;;;;8.90;99.90;;;;;;4983997;28;19922;-80
2023/03/17 05:13:56;;;;;;;;;;;8.90;99.90;;;;;;4974317;28;20457;-79
2023/03/17 05:16:23;;;;;;;;;;;8.90;99.90;;;;;;4972389;28;19922;-79
2023/03/17 05:18:50;;;;;;;;;;;8.80;99.90;;;;;;4972708;28;19922;-79
2023/03/17 05:21:17;;;;;;;;;;;8.90;99.90;;;;;;4981882;28;19932;-81
2023/03/17 05:23:44;;;;;;;;;;;8.90;99.90;;;;;;4982604;28;19926;-81
2023/03/17 05:26:10;;;;;;;;;;;8.80;99.90;;;;;;4978310;28;19933;-80
2023/03/17 05:28:38;;;;;;;;;;;8.80;99.90;;;;;;4980664;28;19937;-81
2023/03/17 05:31:05;;;;;;;;;;;8.80;99.90;;;;;;4981752;28;20024;-80
2023/03/17 05:33:32;;;;;;;;;;;8.80;99.90;;;;;;4973452;28;20624;-80
2023/03/17 05:35:59;;;;;;;;;;;8.70;99.90;;;;;;4974001;28;19929;-81
2023/03/17 05:38:25;;;;;;;;;;;8.70;99.90;;;;;;4978202;28;19924;-83
2023/03/17 05:40:52;;;;;;;;;;;8.70;99.90;;;;;;4980223;28;20371;-82
2023/03/17 05:43:19;;;;;;;;;;;8.70;99.90;;;;;;4983558;28;20344;-82
2023/03/17 05:45:49;;;;;;;;;;;8.70;99.90;;;;;;4985067;28;19926;-80
2023/03/17 05:48:16;;;;;;;;;;;8.70;99.90;;;;;;4980215;28;19989;-80
2023/03/17 05:50:43;;;;;;;;;;;8.70;99.90;;;;;;4983485;28;19936;-81
2023/03/17 05:53:09;;;;;;;;;;;8.80;99.90;;;;;;4977987;28;19922;-80
2023/03/17 05:55:36;;;;;;;;;;;8.80;99.90;;;;;;4978445;28;19933;-79
2023/03/17 05:58:03;;;;;;;;;;;8.80;99.90;;;;;;4975451;28;19930;-80
2023/03/17 06:00:31;;;;;;;;;;;8.80;99.90;;;;;;4983552;28;19980;-79
2023/03/17 06:02:59;;;;;;;;;;;8.90;99.90;;;;;;4975667;28;19926;-80
2023/03/17 06:05:26;;;;;;;;;;;8.90;99.90;;;;;;4982800;28;19922;-80
2023/03/17 06:07:52;;;;;;;;;;;8.90;99.90;;;;;;4974549;28;19969;-80
2023/03/17 06:10:19;;;;;;;;;;;9.00;99.90;;;;;;4976200;28;19926;-80
2023/03/17 06:12:46;;;;;;;;;;;9.00;99.90;;;;;;4983367;28;20353;-80
2023/03/17 06:15:13;;;;;;;;;;;9.20;99.90;;;;;;4979353;28;19930;-81
2023/03/17 06:17:39;;;;;;;;;;;9.20;99.90;;;;;;4971794;28;19926;-80
2023/03/17 06:20:10;;;;;;;;;;;9.30;99.90;;;;;;4970629;28;20718;-80
2023/03/17 06:22:37;;;;;;;;;;;8.90;99.90;;;;;;4985463;28;19953;-83
2023/03/17 06:25:04;;;;;;;;;;;9.50;99.90;;;;;;4965961;28;19926;-80
2023/03/17 06:27:31;;;;;;;;;;;9.70;99.90;;;;;;4973418;28;19922;-80
2023/03/17 06:29:59;;;;;;;;;;;9.80;99.90;;;;;;4973407;28;20337;-82
2023/03/17 06:32:25;;;;;;;;;;;10.00;99.90;;;;;;4969118;28;20159;-82
2023/03/17 06:34:52;;;;;;;;;;;10.40;99.90;;;;;;4974949;28;19989;-81
2023/03/17 06:37:21;;;;;;;;;;;10.80;99.90;;;;;;4977132;28;20474;-80
2023/03/17 06:39:47;;;;;;;;;;;11.20;99.90;;;;;;4972916;28;19984;-81
2023/03/17 06:42:15;;;;;;;;;;;11.60;99.90;;;;;;4970822;28;19922;-81
2023/03/17 06:44:41;;;;;;;;;;;11.90;99.90;;;;;;4964135;28;19926;-80
2023/03/17 06:47:09;;;;;;;;;;;12.20;99.90;;;;;;4967049;28;19930;-81
2023/03/17 06:49:36;;;;;;;;;;;12.60;99.90;;;;;;4973210;28;19934;-81
2023/03/17 06:52:03;;;;;;;;;;;12.80;99.90;;;;;;4971852;28;19926;-82
2023/03/17 06:57:12;;;;;;;;;;;13.40;99.90;;;;;;5304671;23;20016;-79
2023/03/17 06:59:39;;;;;;;;;;;13.70;99.90;;;;;;4963561;28;20291;-80
2023/03/17 07:02:06;;;;;;;;;;;14.20;99.90;;;;;;4956292;28;19953;-80
2023/03/17 07:04:34;;;;;;;;;;;14.80;99.90;;;;;;4951333;28;19922;-80
2023/03/17 07:07:02;;;;;;;;;;;14.80;99.90;;;;;;4949645;29;19978;-80
2023/03/17 07:09:28;;;;;;;;;;;15.00;99.90;;;;;;4973869;23;19957;-77
2023/03/17 07:11:55;;;;;;;;;;;15.00;99.90;;;;;;4978078;28;19949;-77
2023/03/17 07:14:23;;;;;;;;;;;15.40;99.90;;;;;;4967154;28;19926;-78
2023/03/17 07:16:50;;;;;;;;;;;15.50;99.90;;;;;;4970080;28;19954;-78
2023/03/17 07:19:16;;;;;;;;;;;16.00;99.90;;;;;;4955798;28;19938;-77
2023/03/17 07:21:43;;;;;;;;;;;16.80;99.90;;;;;;4965445;28;19926;-78
2023/03/17 07:24:10;;;;;;;;;;;16.90;99.90;;;;;;4967780;28;20013;-78
2023/03/17 07:26:37;;;;;;;;;;;17.10;99.90;;;;;;4959985;28;20071;-80
2023/03/17 07:29:04;;;;;;;;;;;17.40;99.90;;;;;;5459463;23;19945;-78
2023/03/17 07:31:32;;;;;;;;;;;17.60;99.90;;;;;;4951563;28;19922;-78
2023/03/17 07:33:59;;;;;;;;;;;17.90;99.90;;;;;;4948023;28;19922;-78
2023/03/17 07:36:26;;;;;;;;;;;17.90;99.90;;;;;;4961308;29;19927;-78
2023/03/17 07:38:54;;;;;;;;;;;18.00;99.90;;;;;;4968971;28;19922;-79
2023/03/17 07:41:21;;;;;;;;;;;17.90;99.90;;;;;;4966537;28;19930;-79
2023/03/17 07:43:47;;;;;;;;;;;17.60;99.90;;;;;;4972503;23;19929;-76
2023/03/17 07:46:14;;;;;;;;;;;17.80;99.90;;;;;;4965342;28;19926;-76
2023/03/17 07:48:42;;;;;;;;;;;17.40;99.90;;;;;;4963962;28;19930;-76
2023/03/17 07:51:13;;;;;;;;;;;18.30;99.90;;;;;;4961930;28;20107;-76
2023/03/17 07:53:40;;;;;;;;;;;17.00;99.90;;;;;;4962088;28;19922;-76
2023/03/17 07:56:07;;;;;;;;;;;16.80;99.90;;;;;;4969062;28;20012;-76
2023/03/17 07:58:34;;;;;;;;;;;16.40;99.90;;;;;;4968842;28;19981;-76
2023/03/17 08:01:02;;;;;;;;;;;16.50;99.90;;;;;;4962273;28;20029;-75
2023/03/17 08:03:29;;;;;;;;;;;16.30;99.90;;;;;;4967850;28;19972;-76
2023/03/17 08:05:58;;;;;;;;;;;16.20;99.90;;;;;;4968342;28;19997;-76
2023/03/17 08:08:26;;;;;;;;;;;16.10;99.90;;;;;;4965343;28;19930;-77
2023/03/17 08:10:52;;;;;;;;;;;16.10;99.90;;;;;;4960618;28;20359;-77
2023/03/17 08:13:19;;;;;;;;;;;15.90;99.90;;;;;;4965876;28;19925;-77
2023/03/17 08:15:46;;;;;;;;;;;15.80;99.90;;;;;;4971409;28;20354;-76
2023/03/17 08:18:13;;;;;;;;;;;15.50;99.90;;;;;;4970318;28;20032;-78
2023/03/17 08:20:40;;;;;;;;;;;15.50;99.90;;;;;;4970878;28;19930;-78
2023/03/17 08:23:08;;;;;;;;;;;15.10;99.90;;;;;;4961282;28;19938;-77
2023/03/17 08:25:34;;;;;;;;;;;15.40;99.90;;;;;;4959621;28;19997;-76
2023/03/17 08:28:02;;;;;;;;;;;15.50;99.90;;;;;;4968585;28;19952;-78
2023/03/17 08:30:29;;;;;;;;;;;15.60;99.90;;;;;;4968378;28;20487;-78
2023/03/17 08:32:56;;;;;;;;;;;15.80;99.90;;;;;;4971222;28;20426;-75
2023/03/17 08:35:22;;;;;;;;;;;16.20;99.90;;;;;;4969333;28;19922;-76
2023/03/17 08:37:49;;;;;;;;;;;16.00;99.90;;;;;;4961480;28;20354;-76
2023/03/17 08:40:18;;;;;;;;;;;16.00;99.90;;;;;;4968453;28;19957;-76
2023/03/17 08:45:28;;;;;;;;;;;15.80;99.90;;;;;;5031383;23;19931;-76
2023/03/17 08:47:55;;;;;;;;;;;15.90;99.90;;;;;;4924013;29;19965;-76
2023/03/17 08:50:23;;;;;;;;;;;15.90;99.90;;;;;;4925905;29;19927;-77
2023/03/17 08:52:51;;;;;;;;;;;16.00;99.90;;;;;;4922355;29;20353;-75
2023/03/17 08:55:18;;;;;;;;;;;16.20;99.90;;;;;;4931948;29;19951;-76
2023/03/17 09:00:15;;;;;;;;;;;16.30;99.90;;;;;;4944059;28;20840;-81
2023/03/17 09:02:43;;;;;;;;;;;16.40;99.90;;;;;;4947657;28;19930;-79
2023/03/17 09:05:11;;;;;;;;;;;16.60;99.90;;;;;;4952561;28;19930;-79
2023/03/17 09:07:38;;;;;;;;;;;17.00;99.90;;;;;;4952447;28;19951;-79
2023/03/17 09:10:05;;;;;;;;;;;17.20;99.90;;;;;;4943218;28;19938;-79
2023/03/17 09:12:32;;;;;;;;;;;17.30;99.90;;;;;;4941922;28;20483;-79
2023/03/17 09:14:59;;;;;;;;;;;17.40;99.90;;;;;;4950819;28;19923;-79
2023/03/17 09:17:26;;;;;;;;;;;17.50;99.90;;;;;;4955439;28;20005;-77
2023/03/17 09:19:56;;;;;;;;;;;17.40;99.90;;;;;;4950259;28;19945;-77
2023/03/17 09:22:23;;;;;;;;;;;17.50;99.90;;;;;;4953573;28;20360;-78
2023/03/17 09:24:50;;;;;;;;;;;17.40;99.90;;;;;;4955111;29;19965;-78
2023/03/17 09:27:16;;;;;;;;;;;17.40;99.90;;;;;;4955265;28;19926;-77
2023/03/17 09:29:43;;;;;;;;;;;17.40;99.90;;;;;;4932176;29;19930;-77
2023/03/17 09:32:10;;;;;;;;;;;17.60;99.90;;;;;;4943168;29;19973;-78
2023/03/17 09:34:37;;;;;;;;;;;17.50;99.90;;;;;;4938628;28;20009;-77
2023/03/17 09:37:05;;;;;;;;;;;17.50;99.90;;;;;;4934018;29;19938;-77
2023/03/17 09:39:32;;;;;;;;;;;17.50;99.90;;;;;;4941088;29;19952;-77
2023/03/17 09:42:07;;;;;;;;;;;17.40;99.90;;;;;;4935890;28;20029;-77
2023/03/17 09:44:41;;;;;;;;;;;17.10;99.90;;;;;;4933409;28;19931;-79
2023/03/17 09:47:13;;;;;;;;;;;17.50;99.90;;;;;;4932242;29;19930;-77
2023/03/17 09:49:43;;;;;;;;;;;17.60;99.90;;;;;;4937330;28;19936;-79
2023/03/17 09:52:13;;;;;;;;;;;17.60;99.90;;;;;;4930595;29;19930;-78
2023/03/17 09:54:41;;;;;;;;;;;17.50;99.90;;;;;;4931908;29;19930;-78
2023/03/17 09:57:12;;;;;;;;;;;17.50;99.90;;;;;;4934670;29;20363;-79
2023/03/17 09:59:40;;;;;;;;;;;19.20;99.90;;;;;;4937099;28;19934;-78
2023/03/17 10:02:15;;;;;;;;;;;17.10;99.90;;;;;;4938281;28;20324;-78
2023/03/17 10:04:43;;;;;;;;;;;17.10;99.90;;;;;;4941529;28;19927;-78
2023/03/17 10:07:15;;;;;;;;;;;17.10;99.90;;;;;;4924991;29;19926;-79
2023/03/17 10:09:43;;;;;;;;;;;17.20;99.90;;;;;;5467394;23;19925;-78
2023/03/17 10:12:14;;;;;;;;;;;17.20;99.90;;;;;;4955667;28;19929;-79
2023/03/17 10:14:46;;;;;;;;;;;17.40;99.90;;;;;;4950055;28;19930;-77
2023/03/17 10:17:15;;;;;;;;;;;17.60;99.90;;;;;;4948661;28;19929;-78
2023/03/17 10:19:44;;;;;;;;;;;17.60;99.90;;;;;;4948811;28;19926;-79
2023/03/17 10:22:16;;;;;;;;;;;17.70;99.90;;;;;;4921274;29;20025;-79
2023/03/17 10:24:45;;;;;;;;;;;17.70;99.90;;;;;;4938623;29;19930;-79
2023/03/17 10:27:14;;;;;;;;;;;17.60;99.90;;;;;;4943333;29;19928;-79
2023/03/17 10:29:40;;;;;;;;;;;17.60;99.90;;;;;;4964048;23;19938;-77
2023/03/17 10:32:09;;;;;;;;;;;17.60;99.90;;;;;;4924235;29;20029;-78
2023/03/17 10:34:38;;;;;;;;;;;17.70;99.90;;;;;;4966096;28;19911;-78
2023/03/17 10:37:05;;;;;;;;;;;17.80;99.90;;;;;;4967702;29;19930;-78
2023/03/17 10:39:41;;;;;;;;;;;17.70;99.90;;;;;;4956294;28;19922;-78
2023/03/17 10:42:10;;;;;;;;;;;17.60;99.90;;;;;;4927601;29;19965;-78
2023/03/17 10:44:43;;;;;;;;;;;17.60;99.90;;;;;;4950287;29;20024;-78
2023/03/17 10:47:24;;;;;;;;;;;17.60;99.90;;;;;;4950552;28;19922;-78
2023/03/17 10:49:51;;;;;;;;;;;17.70;99.90;;;;;;4953277;28;19976;-79
2023/03/17 10:52:20;;;;;;;;;;;17.70;99.90;;;;;;4957117;28;20322;-79
2023/03/17 10:54:50;;;;;;;;;;;17.70;99.90;;;;;;4956420;29;19957;-79
2023/03/17 10:57:17;;;;;;;;;;;17.70;99.90;;;;;;4957579;28;20192;-79
2023/03/17 10:59:49;;;;;;;;;;;17.70;99.90;;;;;;4943642;29;20457;-79
2023/03/17 11:02:18;;;;;;;;;;;19.10;99.90;;;;;;4954068;28;20009;-78
2023/03/17 11:04:45;;;;;;;;;;;17.90;99.90;;;;;;4960921;28;19926;-78
2023/03/17 11:07:16;;;;;;;;;;;18.10;99.90;;;;;;4956515;28;19974;-78
2023/03/17 11:09:43;;;;;;;;;;;18.30;99.90;;;;;;4938760;28;19927;-79
2023/03/17 11:12:22;;;;;;;;;;;18.30;99.90;;;;;;4950763;28;19993;-79
2023/03/17 11:14:50;;;;;;;;;;;18.40;99.90;;;;;;4949042;28;19985;-79
2023/03/17 11:17:18;;;;;;;;;;;18.50;99.90;;;;;;4947824;29;19926;-79
2023/03/17 11:19:50;;;;;;;;;;;18.80;99.90;;;;;;4949124;28;19926;-79
2023/03/17 11:22:20;;;;;;;;;;;19.00;99.90;;;;;;4950948;29;19923;-77
2023/03/17 11:24:52;;;;;;;;;;;19.30;99.90;;;;;;4950336;29;20216;-78
2023/03/17 11:27:24;;;;;;;;;;;19.60;99.90;;;;;;4947990;28;20062;-78
2023/03/17 11:30:02;;;;;;;;;;;19.80;99.30;;;;;;4941091;28;19930;-78
2023/03/17 11:32:33;;;;;;;;;;;19.80;99.50;;;;;;4943426;28;19922;-78
2023/03/17 11:35:16;;;;;;;;;;;19.90;99.40;;;;;;4943480;28;19934;-78
2023/03/17 11:37:52;;;;;;;;;;;20.00;99.10;;;;;;4942989;28;19933;-78
2023/03/17 11:40:21;;;;;;;;;;;20.10;99.00;;;;;;4946702;28;20009;-78
2023/03/17 11:42:56;;;;;;;;;;;20.20;99.00;;;;;;4942842;28;19930;-77
2023/03/17 11:45:26;;;;;;;;;;;20.30;98.20;;;;;;4946739;28;20224;-77
2023/03/17 11:48:04;;;;;;;;;;;20.30;98.20;;;;;;4943861;28;19978;-78
2023/03/17 11:50:38;;;;;;;;;;;20.40;98.70;;;;;;4941657;28;19930;-77
2023/03/17 11:53:12;;;;;;;;;;;18.60;97.80;;;;;;4943978;28;20375;-77
2023/03/17 11:55:42;;;;;;;;;;;20.80;98.30;;;;;;4946034;28;19926;-76
2023/03/17 11:58:14;;;;;;;;;;;20.90;97.70;;;;;;4939352;28;20289;-77
2023/03/17 12:00:44;;;;;;;;;;;20.90;97.60;;;;;;4929336;29;19977;-76
2023/03/17 12:03:16;;;;;;;;;;;20.80;96.80;;;;;;4956648;28;19926;-78
2023/03/17 12:05:45;;;;;;;;;;;20.70;97.20;;;;;;4954914;28;19927;-77
2023/03/17 12:08:17;;;;;;;;;;;20.60;96.80;;;;;;4929374;29;19969;-78
2023/03/17 12:10:45;;;;;;;;;;;20.60;96.80;;;;;;4925013;29;19931;-78
2023/03/17 12:13:16;;;;;;;;;;;20.60;96.90;;;;;;4927106;29;19937;-78
2023/03/17 12:15:45;;;;;;;;;;;20.60;97.10;;;;;;4952798;28;20688;-78
2023/03/17 12:18:16;;;;;;;;;;;20.50;97.50;;;;;;4950228;28;20384;-78
2023/03/17 12:20:47;;;;;;;;;;;20.60;97.50;;;;;;4946859;29;20683;-78
2023/03/17 12:23:17;;;;;;;;;;;20.60;97.20;;;;;;4948954;28;19930;-78
2023/03/17 12:25:49;;;;;;;;;;;20.70;97.40;;;;;;4949324;29;19942;-78
2023/03/17 12:28:19;;;;;;;;;;;20.80;97.70;;;;;;4927266;29;19926;-78
2023/03/17 12:30:49;;;;;;;;;;;20.80;97.40;;;;;;4948944;29;20014;-78
2023/03/17 12:33:20;;;;;;;;;;;21.00;97.60;;;;;;4947265;29;21269;-77
2023/03/17 12:35:47;;;;;;;;;;;21.00;97.10;;;;;;4945712;29;19930;-77
2023/03/17 12:38:17;;;;;;;;;;;22.60;97.90;;;;;;4945871;28;20327;-77
2023/03/17 12:41:02;;;;;;;;;;;21.10;97.10;;;;;;4945639;28;20002;-76
2023/03/17 12:43:36;;;;;;;;;;;21.20;97.10;;;;;;4932406;28;19942;-77
2023/03/17 12:46:13;;;;;;;;;;;21.20;96.90;;;;;;4945462;29;19931;-77
2023/03/17 12:51:39;;;;;;;;;;;21.30;96.70;;;;;;5054031;23;19949;-77
2023/03/17 12:54:11;;;;;;;;;;;21.20;96.50;;;;;;4945733;28;19936;-77
2023/03/17 12:56:43;;;;;;;;;;;21.00;95.90;;;;;;4950700;28;19937;-78
2023/03/17 12:59:15;;;;;;;;;;;20.90;96.00;;;;;;4952091;28;19930;-77
2023/03/17 13:01:44;;;;;;;;;;;20.90;96.40;;;;;;4955214;28;19990;-77
2023/03/17 13:04:20;;;;;;;;;;;21.00;96.00;;;;;;4953730;29;19965;-77
2023/03/17 13:06:54;;;;;;;;;;;21.00;96.00;;;;;;4944171;28;20348;-77
2023/03/17 13:09:42;;;;;;;;;;;21.10;96.20;;;;;;4937674;28;20002;-77
2023/03/17 13:12:24;;;;;;;;;;;21.20;95.50;;;;;;4939929;28;20358;-77
2023/03/17 13:14:53;;;;;;;;;;;21.00;95.00;;;;;;4939986;28;19930;-77
2023/03/17 13:17:33;;;;;;;;;;;20.90;95.10;;;;;;4942232;29;20447;-77
2023/03/17 13:20:11;;;;;;;;;;;20.90;95.90;;;;;;4940529;28;19931;-77
2023/03/17 13:22:38;;;;;;;;;;;21.00;96.00;;;;;;4940735;28;19938;-77
2023/03/17 13:25:12;;;;;;;;;;;21.00;95.90;;;;;;4939451;28;20384;-77
2023/03/17 13:27:44;;;;;;;;;;;21.10;94.80;;;;;;4941190;28;20040;-77
2023/03/17 13:30:30;;;;;;;;;;;21.00;95.10;;;;;;4953422;28;19922;-76
2023/03/17 13:33:02;;;;;;;;;;;20.90;95.40;;;;;;4942559;28;19927;-76
2023/03/17 13:35:40;;;;;;;;;;;21.00;95.60;;;;;;4940659;29;19930;-77
2023/03/17 13:38:25;;;;;;;;;;;21.00;95.30;;;;;;4950023;29;19937;-76
2023/03/17 13:40:59;;;;;;;;;;;21.00;95.40;;;;;;4953989;28;20475;-77
2023/03/17 13:43:37;;;;;;;;;;;21.10;95.50;;;;;;4952352;28;19926;-77
2023/03/17 13:46:24;;;;;;;;;;;21.00;95.70;;;;;;4937750;29;20412;-76
2023/03/17 13:48:53;;;;;;;;;;;21.10;95.80;;;;;;4938849;28;19933;-77
2023/03/17 13:51:21;;;;;;;;;;;21.20;95.20;;;;;;4938304;28;19965;-77
2023/03/17 13:53:51;;;;;;;;;;;21.10;94.90;;;;;;4941025;28;20623;-77
2023/03/17 13:56:22;;;;;;;;;;;21.00;95.10;;;;;;4940464;28;19938;-77
2023/03/17 13:58:51;;;;;;;;;;;20.80;94.60;;;;;;4941703;28;19930;-77
2023/03/17 14:01:18;;;;;;;;;;;20.80;94.90;;;;;;4942301;28;19941;-78
2023/03/17 14:03:47;;;;;;;;;;;20.70;95.20;;;;;;4958555;29;19926;-77
2023/03/17 14:06:15;;;;;;;;;;;20.60;95.00;;;;;;4955578;28;19922;-76
2023/03/17 14:08:47;;;;;;;;;;;20.60;95.10;;;;;;4957260;28;19958;-76
2023/03/17 14:11:21;;;;;;;;;;;20.50;95.20;;;;;;4948479;28;19922;-76
2023/03/17 14:13:53;;;;;;;;;;;20.50;95.00;;;;;;4946770;29;19926;-76
2023/03/17 14:16:22;;;;;;;;;;;20.40;95.00;;;;;;4957498;28;19936;-76
2023/03/17 14:18:49;;;;;;;;;;;20.40;95.10;;;;;;4940877;28;20210;-76
2023/03/17 14:21:23;;;;;;;;;;;20.40;95.40;;;;;;4943787;28;19929;-77
2023/03/17 14:23:56;;;;;;;;;;;20.50;95.60;;;;;;4954038;28;19926;-77
2023/03/17 14:26:23;;;;;;;;;;;20.50;95.40;;;;;;4961127;28;20002;-78
2023/03/17 14:28:50;;;;;;;;;;;20.50;95.30;;;;;;4955473;28;19930;-77
2023/03/17 14:31:21;;;;;;;;;;;21.50;95.80;;;;;;4942176;29;20395;-77
2023/03/17 14:33:48;;;;;;;;;;;20.50;95.50;;;;;;4951411;29;19962;-78
2023/03/17 14:36:15;;;;;;;;;;;20.50;95.50;;;;;;4949029;28;19926;-78
2023/03/17 14:38:47;;;;;;;;;;;20.50;95.20;;;;;;4932668;29;19926;-78
2023/03/17 14:41:18;;;;;;;;;;;20.40;95.00;;;;;;4949128;28;20344;-78
2023/03/17 14:43:45;;;;;;;;;;;20.30;95.10;;;;;;4955431;28;19927;-77
2023/03/17 14:46:14;;;;;;;;;;;20.40;95.20;;;;;;4935172;29;20087;-76